Time;durP1;ratioP1;P1;durP2;ratioP2;P2;SDS_P1;SDS_P2;PMS_P1;PMS_P2;Temp;Humidity;BMP_temperature;BMP_pressure;BME280_temperature;BME280_humidity;BME280_pressure;Samples;Min_cycle;Max_cycle;Signal;HPM_P1;HPM_P2
2023/05/02 00:01:26;;;;;;;48.88;30.27;;;;;;;;;;5043535;28;21510;-67
2023/05/02 00:03:51;;;;;;;52.20;30.58;;;;;;;;;;5041678;28;20189;-68
2023/05/02 00:06:17;;;;;;;55.15;29.88;;;;;;;;;;5049934;28;20687;-68
2023/05/02 00:08:43;;;;;;;54.53;31.20;;;;;;;;;;5045720;28;20260;-68
2023/05/02 00:11:08;;;;;;;50.33;29.75;;;;;;;;;;5042456;28;20213;-68
2023/05/02 00:13:34;;;;;;;53.17;29.02;;;;;;;;;;5043682;28;20283;-68
2023/05/02 00:15:59;;;;;;;52.17;27.60;;;;;;;;;;5040556;28;20605;-67
2023/05/02 00:18:24;;;;;;;49.92;28.65;;;;;;;;;;5043425;28;20204;-68
2023/05/02 00:20:50;;;;;;;51.13;28.23;;;;;;;;;;5034265;28;20184;-68
2023/05/02 00:23:15;;;;;;;46.58;27.25;;;;;;;;;;5038195;28;20267;-68
2023/05/02 00:25:45;;;;;;;44.78;25.75;;;;;;;;;;5040450;28;20267;-68
2023/05/02 00:28:10;;;;;;;44.20;26.23;;;;;;;;;;5029653;28;20182;-68
2023/05/02 00:30:36;;;;;;;46.90;24.92;;;;;;;;;;5044123;28;20181;-68
2023/05/02 00:33:01;;;;;;;38.40;24.08;;;;;;;;;;5043741;28;20322;-67
2023/05/02 00:35:26;;;;;;;40.88;23.98;;;;;;;;;;5050309;28;20229;-68
2023/05/02 00:37:52;;;;;;;40.55;23.33;;;;;;;;;;5044353;28;20673;-67
2023/05/02 00:40:17;;;;;;;45.95;23.58;;;;;;;;;;5046411;28;20203;-67
2023/05/02 00:42:42;;;;;;;44.33;23.70;;;;;;;;;;5041326;28;20641;-66
2023/05/02 00:45:08;;;;;;;39.58;22.45;;;;;;;;;;5048927;28;20229;-68
2023/05/02 00:47:34;;;;;;;36.92;20.98;;;;;;;;;;5049477;28;20221;-67
2023/05/02 00:50:00;;;;;;;35.50;19.98;;;;;;;;;;5047243;28;20181;-67
2023/05/02 00:52:25;;;;;;;36.60;19.77;;;;;;;;;;5043268;28;20220;-67
2023/05/02 00:54:51;;;;;;;38.38;21.38;;;;;;;;;;5052784;28;20815;-67
2023/05/02 00:57:16;;;;;;;34.80;20.30;;;;;;;;;;5048000;28;20193;-67
2023/05/02 00:59:42;;;;;;;34.83;19.88;;;;;;;;;;5048526;28;20550;-67
2023/05/02 01:02:32;;;;;;;36.13;20.27;;;;;;;;;;5046169;28;20210;-68
2023/05/02 01:05:05;;;;;;;37.38;20.60;;;;;;;;;;5047416;28;20239;-68
2023/05/02 01:07:53;;;;;;;36.60;19.55;;;;;;;;;;5045151;28;20526;-68
2023/05/02 01:10:29;;;;;;;34.90;20.05;;;;;;;;;;5041341;28;20388;-68
2023/05/02 01:13:12;;;;;;;38.30;20.88;;;;;;;;;;5048995;28;20295;-68
2023/05/02 01:15:40;;;;;;;39.42;19.65;;;;;;;;;;5044689;28;20197;-67
2023/05/02 01:18:09;;;;;;;34.42;18.83;;;;;;;;;;5038196;28;20502;-68
2023/05/02 01:20:40;;;;;;;36.85;18.70;;;;;;;;;;5035166;28;20876;-66
2023/05/02 01:23:15;;;;;;;35.72;18.77;;;;;;;;;;5040126;28;20181;-68
2023/05/02 01:26:34;;;;;;;34.80;18.85;;;;;;;;;;5047282;28;20189;-68
2023/05/02 01:29:01;;;;;;;33.25;19.05;;;;;;;;;;5066058;28;20197;-68
2023/05/02 01:31:37;;;;;;;29.20;17.17;;;;;;;;;;5045427;28;20206;-67
2023/05/02 01:34:05;;;;;;;31.10;16.10;;;;;;;;;;5031623;28;20281;-68
2023/05/02 01:36:32;;;;;;;32.78;16.40;;;;;;;;;;5046597;28;20192;-67
2023/05/02 01:39:00;;;;;;;27.85;14.65;;;;;;;;;;5048387;28;20699;-67
2023/05/02 01:41:27;;;;;;;22.90;13.73;;;;;;;;;;5039375;28;20186;-67
2023/05/02 01:43:58;;;;;;;22.45;14.20;;;;;;;;;;5040145;28;20293;-68
2023/05/02 01:46:33;;;;;;;26.10;13.45;;;;;;;;;;5043384;28;20224;-67
2023/05/02 01:49:02;;;;;;;27.60;12.32;;;;;;;;;;5045284;28;20193;-68
2023/05/02 01:51:31;;;;;;;20.17;11.20;;;;;;;;;;5046424;28;20721;-67
2023/05/02 01:54:00;;;;;;;20.98;11.68;;;;;;;;;;5047586;28;20649;-67
2023/05/02 01:56:27;;;;;;;15.25;9.70;;;;;;;;;;5042063;28;20196;-68
2023/05/02 01:58:54;;;;;;;22.73;8.65;;;;;;;;;;5029274;28;20193;-69
2023/05/02 02:01:21;;;;;;;14.02;7.10;;;;;;;;;;5046446;28;20259;-68
2023/05/02 02:03:47;;;;;;;13.57;6.47;;;;;;;;;;5042346;28;20186;-66
2023/05/02 02:06:13;;;;;;;10.63;5.68;;;;;;;;;;5039147;28;20552;-69
2023/05/02 02:08:38;;;;;;;13.13;6.30;;;;;;;;;;5045049;28;20556;-69
2023/05/02 02:11:10;;;;;;;10.23;5.47;;;;;;;;;;5043573;28;20206;-68
2023/05/02 02:13:46;;;;;;;14.93;6.40;;;;;;;;;;5041326;28;20228;-68
2023/05/02 02:16:17;;;;;;;16.08;6.05;;;;;;;;;;5045190;28;20207;-69
2023/05/02 02:18:44;;;;;;;11.85;6.10;;;;;;;;;;5033266;28;20182;-68
2023/05/02 02:21:10;;;;;;;14.27;6.43;;;;;;;;;;5037625;28;20210;-67
2023/05/02 02:23:38;;;;;;;12.80;5.20;;;;;;;;;;5039518;28;20246;-68
2023/05/02 02:26:05;;;;;;;14.43;5.45;;;;;;;;;;5037672;28;20204;-67
2023/05/02 02:28:31;;;;;;;16.55;5.18;;;;;;;;;;5039552;28;20256;-69
2023/05/02 02:30:56;;;;;;;11.25;4.57;;;;;;;;;;5033782;28;20311;-68
2023/05/02 02:33:25;;;;;;;11.27;4.53;;;;;;;;;;5045818;28;20228;-67
2023/05/02 02:36:12;;;;;;;8.35;4.50;;;;;;;;;;5046865;28;20276;-66
2023/05/02 02:38:41;;;;;;;11.32;4.05;;;;;;;;;;5041051;28;20180;-67
2023/05/02 02:41:27;;;;;;;11.02;4.32;;;;;;;;;;5045217;28;20206;-67
2023/05/02 02:44:30;;;;;;;8.85;3.90;;;;;;;;;;5047318;28;20189;-67
2023/05/02 02:47:05;;;;;;;9.73;3.97;;;;;;;;;;5036170;28;20216;-66
2023/05/02 02:49:59;;;;;;;11.98;4.22;;;;;;;;;;5046281;28;20195;-67
2023/05/02 02:52:50;;;;;;;10.05;4.25;;;;;;;;;;5030656;28;20210;-67
2023/05/02 02:55:31;;;;;;;7.18;3.40;;;;;;;;;;5044831;28;20196;-67
2023/05/02 02:58:03;;;;;;;11.27;3.50;;;;;;;;;;5038486;28;20217;-67
2023/05/02 03:00:28;;;;;;;10.15;3.42;;;;;;;;;;5040745;28;20421;-67
2023/05/02 03:02:55;;;;;;;6.95;3.08;;;;;;;;;;5040394;28;20541;-67
2023/05/02 03:05:22;;;;;;;9.60;3.22;;;;;;;;;;5035998;28;20836;-67
2023/05/02 03:07:47;;;;;;;7.80;2.80;;;;;;;;;;5046099;28;20300;-67
2023/05/02 03:10:13;;;;;;;13.32;2.78;;;;;;;;;;5039801;28;20307;-68
2023/05/02 03:12:42;;;;;;;10.10;2.95;;;;;;;;;;5031938;28;20291;-71
2023/05/02 03:15:19;;;;;;;5.18;2.80;;;;;;;;;;5046244;28;20247;-68
2023/05/02 03:17:45;;;;;;;8.32;2.63;;;;;;;;;;5039696;28;20185;-67
2023/05/02 03:20:10;;;;;;;8.52;2.25;;;;;;;;;;5038894;28;20208;-69
2023/05/02 03:22:36;;;;;;;5.88;2.63;;;;;;;;;;5042627;28;20193;-68
2023/05/02 03:25:02;;;;;;;8.38;2.97;;;;;;;;;;5033772;28;20706;-67
2023/05/02 03:27:28;;;;;;;5.63;2.85;;;;;;;;;;5040606;28;20308;-68
2023/05/02 03:29:53;;;;;;;8.95;2.78;;;;;;;;;;5040930;28;20348;-67
2023/05/02 03:32:18;;;;;;;5.40;2.60;;;;;;;;;;5047002;28;20198;-68
2023/05/02 03:34:44;;;;;;;10.55;2.70;;;;;;;;;;5033030;28;20233;-68
2023/05/02 03:37:09;;;;;;;7.35;2.45;;;;;;;;;;5046998;28;20174;-67
2023/05/02 03:39:34;;;;;;;7.28;2.88;;;;;;;;;;5031890;28;20194;-68
2023/05/02 03:42:00;;;;;;;8.43;2.80;;;;;;;;;;5049246;28;20582;-68
2023/05/02 03:44:26;;;;;;;11.77;3.13;;;;;;;;;;5047634;28;20189;-67
2023/05/02 03:46:51;;;;;;;6.78;2.55;;;;;;;;;;5046000;28;20320;-67
2023/05/02 03:49:18;;;;;;;8.02;2.53;;;;;;;;;;5043777;28;20688;-67
2023/05/02 03:51:43;;;;;;;10.35;2.60;;;;;;;;;;5043837;28;20213;-67
2023/05/02 03:54:09;;;;;;;9.20;2.80;;;;;;;;;;5034160;28;20213;-67
2023/05/02 03:56:35;;;;;;;8.23;2.40;;;;;;;;;;5040585;28;20199;-68
2023/05/02 03:59:00;;;;;;;8.57;2.90;;;;;;;;;;5034388;28;20182;-68
2023/05/02 04:01:26;;;;;;;7.18;2.45;;;;;;;;;;5033869;28;20262;-68
2023/05/02 04:03:51;;;;;;;9.80;2.45;;;;;;;;;;5036292;28;20213;-67
2023/05/02 04:06:17;;;;;;;7.15;2.50;;;;;;;;;;5030605;28;20194;-68
2023/05/02 04:08:42;;;;;;;11.20;2.85;;;;;;;;;;5037624;28;20208;-68
2023/05/02 04:11:08;;;;;;;8.20;3.00;;;;;;;;;;5040319;28;20210;-68
2023/05/02 04:13:33;;;;;;;7.18;3.20;;;;;;;;;;5046935;28;20530;-68
2023/05/02 04:15:58;;;;;;;8.20;3.28;;;;;;;;;;5039517;28;20255;-68
2023/05/02 04:18:24;;;;;;;10.00;3.33;;;;;;;;;;5049069;28;20206;-69
2023/05/02 04:20:49;;;;;;;8.80;3.78;;;;;;;;;;5050087;28;20185;-71
2023/05/02 04:23:14;;;;;;;7.75;3.58;;;;;;;;;;5042299;28;20181;-70
2023/05/02 04:25:40;;;;;;;9.00;3.97;;;;;;;;;;5044075;28;20197;-70
2023/05/02 04:28:05;;;;;;;10.30;3.63;;;;;;;;;;5044782;28;20570;-70
2023/05/02 04:30:31;;;;;;;9.65;3.78;;;;;;;;;;5048720;28;20197;-71
2023/05/02 04:32:56;;;;;;;10.32;3.90;;;;;;;;;;5044132;28;20900;-70
2023/05/02 04:35:22;;;;;;;15.88;3.95;;;;;;;;;;5046352;28;20209;-72
2023/05/02 04:37:47;;;;;;;10.45;4.00;;;;;;;;;;5044728;28;20185;-72
2023/05/02 04:40:12;;;;;;;16.88;4.65;;;;;;;;;;5039874;28;20660;-72
2023/05/02 04:42:38;;;;;;;14.18;4.32;;;;;;;;;;5049770;28;20198;-71
2023/05/02 04:45:04;;;;;;;19.15;5.00;;;;;;;;;;5049300;28;20542;-71
2023/05/02 04:47:29;;;;;;;18.55;5.32;;;;;;;;;;5040830;28;20256;-71
2023/05/02 04:49:55;;;;;;;25.45;5.72;;;;;;;;;;5042991;28;20191;-71
2023/05/02 04:52:20;;;;;;;19.15;5.53;;;;;;;;;;5043082;28;20276;-71
2023/05/02 04:54:45;;;;;;;22.13;5.53;;;;;;;;;;5032571;28;20240;-72
2023/05/02 04:57:11;;;;;;;20.52;5.20;;;;;;;;;;5039733;28;20313;-73
2023/05/02 04:59:37;;;;;;;21.35;5.30;;;;;;;;;;5034060;28;20480;-73
2023/05/02 05:02:03;;;;;;;20.30;6.50;;;;;;;;;;5044057;28;20205;-73
2023/05/02 05:04:28;;;;;;;21.23;5.25;;;;;;;;;;5036702;28;20192;-76
2023/05/02 05:07:02;;;;;;;19.60;5.30;;;;;;;;;;5055042;28;20221;-80
2023/05/02 05:09:27;;;;;;;20.83;5.22;;;;;;;;;;5047107;28;20239;-77
2023/05/02 05:11:53;;;;;;;15.27;5.30;;;;;;;;;;4347214;28;10000717;-78
2023/05/02 05:14:18;;;;;;;31.33;6.78;;;;;;;;;;5045838;28;20205;-79
2023/05/02 05:16:43;;;;;;;29.17;6.32;;;;;;;;;;5041238;28;20197;-76
2023/05/02 05:19:09;;;;;;;32.25;6.13;;;;;;;;;;5038633;28;20563;-78
2023/05/02 05:21:35;;;;;;;28.17;6.68;;;;;;;;;;5043495;28;20196;-76
2023/05/02 05:24:01;;;;;;;26.45;6.57;;;;;;;;;;5035114;28;20421;-77
2023/05/02 05:26:26;;;;;;;29.35;6.28;;;;;;;;;;5047932;28;20185;-77
2023/05/02 05:28:52;;;;;;;35.35;6.72;;;;;;;;;;5018929;28;20650;-76
2023/05/02 05:31:17;;;;;;;26.30;6.50;;;;;;;;;;5043406;28;20344;-76
2023/05/02 05:33:42;;;;;;;40.83;8.50;;;;;;;;;;5031729;28;20650;-74
2023/05/02 05:36:13;;;;;;;26.27;6.22;;;;;;;;;;5049004;28;20226;-74
2023/05/02 05:38:39;;;;;;;24.33;6.45;;;;;;;;;;5042332;28;20240;-71
2023/05/02 05:41:05;;;;;;;23.30;6.45;;;;;;;;;;5045206;28;20194;-71
2023/05/02 05:43:30;;;;;;;22.83;6.18;;;;;;;;;;5049415;28;20212;-73
2023/05/02 05:45:56;;;;;;;27.02;6.20;;;;;;;;;;5047193;28;20712;-70
2023/05/02 05:48:22;;;;;;;27.67;6.07;;;;;;;;;;5041226;28;20502;-72
2023/05/02 05:50:47;;;;;;;26.27;5.85;;;;;;;;;;5043283;28;20228;-71
2023/05/02 05:53:13;;;;;;;26.25;6.53;;;;;;;;;;5043518;28;20214;-71
2023/05/02 05:55:39;;;;;;;17.63;6.13;;;;;;;;;;5047862;28;20193;-71
2023/05/02 05:58:05;;;;;;;33.88;5.80;;;;;;;;;;5046588;28;20384;-71
2023/05/02 06:00:35;;;;;;;24.88;6.47;;;;;;;;;;5040704;28;20401;-71
2023/05/02 06:03:00;;;;;;;17.95;4.90;;;;;;;;;;5041894;28;20208;-71
2023/05/02 06:05:26;;;;;;;22.08;4.07;;;;;;;;;;5038371;28;20194;-71
2023/05/02 06:07:51;;;;;;;14.23;4.35;;;;;;;;;;5037799;28;20216;-71
2023/05/02 06:10:17;;;;;;;20.50;5.30;;;;;;;;;;5046089;28;20248;-71
2023/05/02 06:12:42;;;;;;;19.83;4.13;;;;;;;;;;5047004;28;20255;-72
2023/05/02 06:15:08;;;;;;;17.83;4.07;;;;;;;;;;5040812;28;20224;-72
2023/05/02 06:17:33;;;;;;;16.67;3.72;;;;;;;;;;5038411;28;20544;-71
2023/05/02 06:19:58;;;;;;;14.05;3.40;;;;;;;;;;5038751;28;20243;-71
2023/05/02 06:22:24;;;;;;;12.82;3.20;;;;;;;;;;5041594;28;20205;-72
2023/05/02 06:24:49;;;;;;;16.98;2.92;;;;;;;;;;5036104;28;20193;-71
2023/05/02 06:27:15;;;;;;;9.98;2.85;;;;;;;;;;5045006;28;20288;-72
2023/05/02 06:29:40;;;;;;;9.68;2.80;;;;;;;;;;5046373;28;20189;-71
2023/05/02 06:32:06;;;;;;;14.05;2.80;;;;;;;;;;5040973;28;20633;-73
2023/05/02 06:34:32;;;;;;;12.25;2.50;;;;;;;;;;5046928;28;20814;-72
2023/05/02 06:36:57;;;;;;;8.48;2.45;;;;;;;;;;5042238;28;20178;-72
2023/05/02 06:39:23;;;;;;;14.07;2.35;;;;;;;;;;5036336;28;20185;-72
2023/05/02 06:41:48;;;;;;;10.10;2.33;;;;;;;;;;5044750;28;20197;-70
2023/05/02 06:44:14;;;;;;;8.15;2.25;;;;;;;;;;5038224;28;20182;-69
2023/05/02 06:46:39;;;;;;;10.50;2.03;;;;;;;;;;5039842;28;20304;-71
2023/05/02 06:49:05;;;;;;;9.70;1.98;;;;;;;;;;5046001;28;20550;-69
2023/05/02 06:51:31;;;;;;;8.85;2.17;;;;;;;;;;5042669;28;20681;-72
2023/05/02 06:53:56;;;;;;;10.23;1.95;;;;;;;;;;5035994;28;20184;-69
2023/05/02 06:56:24;;;;;;;10.35;2.22;;;;;;;;;;5047301;28;20202;-71
2023/05/02 06:58:50;;;;;;;5.53;1.88;;;;;;;;;;5033145;28;20188;-70
2023/05/02 07:01:15;;;;;;;16.90;2.35;;;;;;;;;;5044997;28;20217;-69
2023/05/02 07:03:41;;;;;;;9.45;2.22;;;;;;;;;;5042071;28;20199;-70
2023/05/02 07:06:06;;;;;;;8.75;1.90;;;;;;;;;;5033856;28;20178;-69
2023/05/02 07:08:31;;;;;;;10.85;1.88;;;;;;;;;;5042457;28;20660;-71
2023/05/02 07:10:57;;;;;;;8.10;1.98;;;;;;;;;;5031389;28;20240;-70
2023/05/02 07:13:22;;;;;;;16.00;2.50;;;;;;;;;;5032407;28;20190;-69
2023/05/02 07:15:47;;;;;;;11.63;2.45;;;;;;;;;;5038537;28;20225;-69
2023/05/02 07:18:13;;;;;;;6.88;2.30;;;;;;;;;;5040745;28;20280;-70
2023/05/02 07:20:40;;;;;;;10.90;1.83;;;;;;;;;;5032575;28;20224;-71
2023/05/02 07:23:05;;;;;;;7.93;1.73;;;;;;;;;;5038248;28;20194;-70
2023/05/02 07:25:31;;;;;;;6.60;2.20;;;;;;;;;;5044016;28;20555;-71
2023/05/02 07:27:56;;;;;;;5.53;2.10;;;;;;;;;;5032742;28;20189;-70
2023/05/02 07:30:22;;;;;;;15.88;2.28;;;;;;;;;;5037006;28;20190;-70
2023/05/02 07:32:47;;;;;;;8.10;1.70;;;;;;;;;;5039916;28;20228;-70
2023/05/02 07:35:13;;;;;;;9.70;2.05;;;;;;;;;;5044613;28;20534;-69
2023/05/02 07:37:38;;;;;;;10.10;2.22;;;;;;;;;;5046115;28;20189;-72
2023/05/02 07:40:06;;;;;;;9.43;2.50;;;;;;;;;;5042208;28;20245;-71
2023/05/02 07:42:31;;;;;;;12.57;2.28;;;;;;;;;;5048435;28;20554;-72
2023/05/02 07:44:57;;;;;;;6.55;1.60;;;;;;;;;;5033246;28;20293;-69
2023/05/02 07:47:22;;;;;;;10.07;2.10;;;;;;;;;;5033611;28;20367;-69
2023/05/02 07:49:52;;;;;;;6.60;1.98;;;;;;;;;;5039951;28;20512;-70
2023/05/02 07:52:18;;;;;;;7.38;1.75;;;;;;;;;;5046594;28;20500;-70
2023/05/02 07:54:43;;;;;;;11.52;1.90;;;;;;;;;;5037624;28;20598;-72
2023/05/02 07:57:09;;;;;;;6.90;1.75;;;;;;;;;;5041906;28;20272;-70
2023/05/02 07:59:34;;;;;;;12.40;2.00;;;;;;;;;;5049848;28;20199;-69
2023/05/02 08:01:59;;;;;;;8.63;1.60;;;;;;;;;;5046134;28;20205;-69
2023/05/02 08:04:25;;;;;;;5.72;1.65;;;;;;;;;;5048262;28;20595;-70
2023/05/02 08:06:51;;;;;;;8.77;1.85;;;;;;;;;;5037778;28;20173;-68
2023/05/02 08:09:16;;;;;;;8.60;1.60;;;;;;;;;;5041470;28;20192;-69
2023/05/02 08:11:42;;;;;;;11.40;1.70;;;;;;;;;;5037331;28;20198;-67
2023/05/02 08:14:07;;;;;;;7.82;1.52;;;;;;;;;;5048320;28;20212;-68
2023/05/02 08:16:33;;;;;;;5.95;1.42;;;;;;;;;;5033668;28;20553;-68
2023/05/02 08:18:58;;;;;;;8.32;1.75;;;;;;;;;;5040314;28;20194;-72
2023/05/02 08:21:23;;;;;;;8.25;2.03;;;;;;;;;;5047711;28;20686;-69
2023/05/02 08:23:49;;;;;;;8.63;1.75;;;;;;;;;;5049417;28;20209;-67
2023/05/02 08:26:14;;;;;;;10.25;2.20;;;;;;;;;;5042597;28;20261;-68
2023/05/02 08:28:40;;;;;;;12.52;1.90;;;;;;;;;;5046508;28;20186;-68
2023/05/02 08:31:05;;;;;;;8.43;1.90;;;;;;;;;;5035288;28;20190;-67
2023/05/02 08:33:31;;;;;;;6.53;1.70;;;;;;;;;;5050922;28;20189;-69
2023/05/02 08:35:56;;;;;;;11.00;2.15;;;;;;;;;;5049853;28;20247;-67
2023/05/02 08:38:21;;;;;;;5.90;1.50;;;;;;;;;;5045786;28;20268;-69
2023/05/02 08:40:47;;;;;;;10.35;1.80;;;;;;;;;;5042228;28;20688;-68
2023/05/02 08:43:15;;;;;;;10.35;2.03;;;;;;;;;;5047121;28;20184;-69
2023/05/02 08:45:42;;;;;;;8.30;1.40;;;;;;;;;;5038852;28;20247;-71
2023/05/02 08:48:10;;;;;;;9.18;1.92;;;;;;;;;;5048341;28;20284;-71
2023/05/02 08:50:45;;;;;;;6.47;1.90;;;;;;;;;;5051195;28;20190;-69
2023/05/02 08:53:13;;;;;;;9.68;2.38;;;;;;;;;;5046564;28;20201;-68
2023/05/02 08:55:40;;;;;;;10.77;2.22;;;;;;;;;;5034031;28;20592;-68
2023/05/02 08:58:06;;;;;;;9.55;2.47;;;;;;;;;;5046610;28;20181;-71
2023/05/02 09:00:32;;;;;;;10.65;1.95;;;;;;;;;;5046257;28;20205;-68
2023/05/02 09:03:08;;;;;;;6.97;2.05;;;;;;;;;;5050299;28;20238;-68
2023/05/02 09:05:39;;;;;;;11.93;2.50;;;;;;;;;;5047349;28;20594;-72
2023/05/02 09:08:05;;;;;;;14.07;1.95;;;;;;;;;;5053507;28;20485;-69
2023/05/02 09:10:36;;;;;;;8.38;2.28;;;;;;;;;;5048428;28;20189;-70
2023/05/02 09:13:27;;;;;;;7.75;1.83;;;;;;;;;;5049141;28;20243;-69
2023/05/02 09:16:07;;;;;;;8.98;2.20;;;;;;;;;;5045213;28;20197;-67
2023/05/02 09:18:46;;;;;;;6.88;2.20;;;;;;;;;;5029506;28;20556;-70
2023/05/02 09:21:25;;;;;;;14.20;2.25;;;;;;;;;;5058339;28;20196;-70
2023/05/02 09:23:53;;;;;;;7.32;2.20;;;;;;;;;;5048406;28;20212;-70
2023/05/02 09:26:20;;;;;;;10.00;2.15;;;;;;;;;;5038898;28;20274;-69
2023/05/02 09:28:50;;;;;;;12.10;2.72;;;;;;;;;;5049853;28;20186;-69
2023/05/02 09:31:24;;;;;;;12.63;2.65;;;;;;;;;;5047323;28;20247;-69
2023/05/02 09:33:50;;;;;;;5.38;1.52;;;;;;;;;;5050163;28;20191;-69
2023/05/02 09:36:17;;;;;;;9.73;1.95;;;;;;;;;;5046876;28;20723;-69
2023/05/02 09:38:45;;;;;;;9.63;2.50;;;;;;;;;;5046080;28;20612;-68
2023/05/02 09:41:11;;;;;;;8.75;2.03;;;;;;;;;;5049483;28;20300;-68
2023/05/02 09:43:37;;;;;;;11.15;2.42;;;;;;;;;;5042103;28;20181;-68
2023/05/02 09:46:08;;;;;;;7.78;2.63;;;;;;;;;;5049190;28;20601;-69
2023/05/02 09:48:53;;;;;;;9.30;2.40;;;;;;;;;;5048569;28;20264;-69
2023/05/02 09:51:20;;;;;;;9.30;2.30;;;;;;;;;;5036353;28;20682;-68
2023/05/02 09:53:46;;;;;;;9.93;3.10;;;;;;;;;;5047127;28;20198;-69
2023/05/02 09:56:11;;;;;;;12.63;3.05;;;;;;;;;;5048331;28;20561;-70
2023/05/02 09:58:37;;;;;;;13.40;2.80;;;;;;;;;;5044807;28;20368;-69
2023/05/02 10:01:02;;;;;;;8.05;2.55;;;;;;;;;;5036633;28;20677;-70
2023/05/02 10:03:29;;;;;;;12.20;2.30;;;;;;;;;;5044113;28;20193;-69
2023/05/02 10:05:55;;;;;;;7.32;2.25;;;;;;;;;;5034920;28;20232;-68
2023/05/02 10:08:23;;;;;;;6.93;2.40;;;;;;;;;;5051537;28;20746;-70
2023/05/02 10:10:52;;;;;;;8.45;2.40;;;;;;;;;;5038233;28;20640;-68
2023/05/02 10:13:21;;;;;;;9.52;2.38;;;;;;;;;;5048930;28;20214;-68
2023/05/02 10:15:49;;;;;;;12.13;3.08;;;;;;;;;;5047852;28;20199;-70
2023/05/02 10:18:23;;;;;;;10.02;2.97;;;;;;;;;;5046902;28;20185;-71
2023/05/02 10:20:56;;;;;;;12.65;3.58;;;;;;;;;;5046769;28;20625;-69
2023/05/02 10:23:25;;;;;;;10.70;2.63;;;;;;;;;;5039681;28;20201;-69
2023/05/02 10:25:52;;;;;;;10.27;2.85;;;;;;;;;;5037459;28;20264;-69
2023/05/02 10:28:17;;;;;;;9.48;2.88;;;;;;;;;;5042674;28;20195;-72
2023/05/02 10:30:43;;;;;;;10.48;2.75;;;;;;;;;;5039150;28;20194;-69
2023/05/02 10:33:12;;;;;;;8.45;2.75;;;;;;;;;;5047766;28;20224;-69
2023/05/02 10:35:42;;;;;;;9.38;2.78;;;;;;;;;;5048327;28;20224;-69
2023/05/02 10:38:09;;;;;;;7.63;2.38;;;;;;;;;;5042943;28;20198;-71
2023/05/02 10:40:35;;;;;;;8.93;2.67;;;;;;;;;;5039369;28;20626;-73
2023/05/02 10:43:02;;;;;;;10.93;2.42;;;;;;;;;;5045528;28;20287;-70
2023/05/02 10:45:36;;;;;;;10.27;2.90;;;;;;;;;;5035041;28;20308;-72
2023/05/02 10:48:17;;;;;;;8.25;2.45;;;;;;;;;;5038379;28;20226;-69
2023/05/02 10:50:46;;;;;;;12.57;2.65;;;;;;;;;;5047035;28;20250;-68
2023/05/02 10:53:39;;;;;;;15.45;2.92;;;;;;;;;;5038699;28;20202;-68
2023/05/02 10:56:08;;;;;;;10.75;2.95;;;;;;;;;;5038429;28;20201;-70
2023/05/02 10:58:33;;;;;;;10.18;2.55;;;;;;;;;;5035241;28;20292;-71
2023/05/02 11:01:25;;;;;;;8.40;2.05;;;;;;;;;;5047107;28;20209;-70
2023/05/02 11:04:04;;;;;;;10.23;2.50;;;;;;;;;;5040385;28;20272;-72
2023/05/02 11:06:35;;;;;;;12.75;2.75;;;;;;;;;;5047718;28;20221;-70
2023/05/02 11:09:17;;;;;;;13.23;2.67;;;;;;;;;;5045858;28;20188;-69
2023/05/02 11:11:47;;;;;;;10.85;2.70;;;;;;;;;;5039441;28;20249;-70
2023/05/02 11:14:24;;;;;;;9.13;2.38;;;;;;;;;;5040073;28;20214;-69
2023/05/02 11:17:08;;;;;;;10.43;2.67;;;;;;;;;;5048286;28;20193;-69
2023/05/02 11:19:36;;;;;;;8.70;2.65;;;;;;;;;;5035306;28;20194;-69
2023/05/02 11:22:30;;;;;;;5.82;2.30;;;;;;;;;;5040696;28;20226;-69
2023/05/02 11:24:55;;;;;;;9.68;2.08;;;;;;;;;;5041170;28;20197;-68
2023/05/02 11:27:30;;;;;;;11.18;2.45;;;;;;;;;;5028639;28;20196;-69
2023/05/02 11:30:00;;;;;;;6.65;2.00;;;;;;;;;;5045013;28;20446;-69
2023/05/02 11:32:46;;;;;;;7.10;2.58;;;;;;;;;;5035962;28;20608;-68
2023/05/02 11:35:22;;;;;;;9.63;2.80;;;;;;;;;;5030465;28;20668;-68
2023/05/02 11:38:04;;;;;;;7.53;2.35;;;;;;;;;;5042301;28;20190;-69
2023/05/02 11:40:30;;;;;;;6.85;2.30;;;;;;;;;;5036014;28;20272;-68
2023/05/02 11:42:59;;;;;;;5.82;2.15;;;;;;;;;;5047071;28;20260;-69
2023/05/02 11:45:35;;;;;;;8.23;2.63;;;;;;;;;;5033723;28;20260;-69
2023/05/02 11:48:01;;;;;;;7.78;2.47;;;;;;;;;;5046803;28;20177;-68
2023/05/02 11:50:29;;;;;;;11.65;2.70;;;;;;;;;;5041216;28;20273;-70
2023/05/02 11:52:54;;;;;;;5.60;2.38;;;;;;;;;;5040462;28;20546;-69
2023/05/02 11:55:20;;;;;;;7.82;2.70;;;;;;;;;;5031468;28;20190;-67
2023/05/02 11:57:45;;;;;;;8.55;2.45;;;;;;;;;;5035045;28;20185;-68
2023/05/02 12:00:11;;;;;;;9.80;2.28;;;;;;;;;;5048667;28;20209;-68
2023/05/02 12:02:41;;;;;;;10.57;2.40;;;;;;;;;;5033344;28;20315;-69
2023/05/02 12:05:09;;;;;;;8.25;2.45;;;;;;;;;;5029576;28;20220;-69
2023/05/02 12:07:45;;;;;;;9.77;2.58;;;;;;;;;;5047280;28;20212;-69
2023/05/02 12:10:11;;;;;;;7.20;2.20;;;;;;;;;;5029831;28;20247;-68
2023/05/02 12:12:39;;;;;;;6.60;2.42;;;;;;;;;;5040673;28;20190;-69
2023/05/02 12:15:07;;;;;;;11.13;2.13;;;;;;;;;;5043739;28;20208;-70
2023/05/02 12:17:36;;;;;;;7.30;2.25;;;;;;;;;;5045408;28;20193;-68
2023/05/02 12:20:21;;;;;;;8.90;2.28;;;;;;;;;;5039731;28;20667;-67
2023/05/02 12:22:47;;;;;;;7.70;2.75;;;;;;;;;;5045643;28;20213;-68
2023/05/02 12:25:12;;;;;;;7.15;2.78;;;;;;;;;;5047605;28;20185;-67
2023/05/02 12:27:37;;;;;;;9.25;2.20;;;;;;;;;;5036794;28;20264;-67
2023/05/02 12:30:04;;;;;;;8.85;2.45;;;;;;;;;;5045031;28;20271;-69
2023/05/02 12:32:32;;;;;;;9.70;2.30;;;;;;;;;;5030948;28;20194;-69
2023/05/02 12:34:59;;;;;;;11.43;2.90;;;;;;;;;;5049238;28;20249;-68
2023/05/02 12:37:26;;;;;;;6.90;1.85;;;;;;;;;;5051041;28;20196;-67
2023/05/02 12:39:52;;;;;;;8.07;2.22;;;;;;;;;;5049096;28;20320;-68
2023/05/02 12:42:20;;;;;;;10.27;2.30;;;;;;;;;;5041935;28;20248;-68
2023/05/02 12:44:47;;;;;;;6.85;2.10;;;;;;;;;;5040713;28;20200;-69
2023/05/02 12:47:14;;;;;;;6.88;2.17;;;;;;;;;;5041962;28;20195;-67
2023/05/02 12:49:58;;;;;;;7.68;2.05;;;;;;;;;;5044281;28;20189;-67
2023/05/02 12:52:53;;;;;;;8.52;2.25;;;;;;;;;;5047786;28;20225;-67
2023/05/02 12:55:23;;;;;;;5.63;2.05;;;;;;;;;;5036762;28;20243;-66
2023/05/02 12:57:49;;;;;;;10.65;2.22;;;;;;;;;;5040126;28;20273;-67
2023/05/02 13:00:17;;;;;;;9.77;2.20;;;;;;;;;;5045139;28;20561;-67
2023/05/02 13:02:42;;;;;;;12.00;2.25;;;;;;;;;;5042355;28;20248;-66
2023/05/02 13:05:17;;;;;;;7.57;2.45;;;;;;;;;;5048967;28;20201;-68
2023/05/02 13:07:43;;;;;;;5.70;2.13;;;;;;;;;;5042431;28;20660;-67
2023/05/02 13:10:10;;;;;;;8.43;2.17;;;;;;;;;;5032997;28;20185;-67
2023/05/02 13:12:37;;;;;;;6.03;1.80;;;;;;;;;;5036759;28;20735;-68
2023/05/02 13:15:07;;;;;;;7.68;2.05;;;;;;;;;;5036986;28;20323;-67
2023/05/02 13:17:33;;;;;;;11.13;2.28;;;;;;;;;;5042854;28;20612;-67
2023/05/02 13:19:59;;;;;;;10.80;2.50;;;;;;;;;;5041962;28;20331;-67
2023/05/02 13:22:25;;;;;;;7.10;2.30;;;;;;;;;;5045578;28;20178;-67
2023/05/02 13:24:51;;;;;;;6.45;1.92;;;;;;;;;;5036345;28;20185;-68
2023/05/02 13:27:17;;;;;;;4.68;1.90;;;;;;;;;;5048297;28;20708;-68
2023/05/02 13:29:46;;;;;;;5.68;1.70;;;;;;;;;;5049881;28;20213;-68
2023/05/02 13:32:11;;;;;;;5.18;1.70;;;;;;;;;;5057137;28;20210;-69
2023/05/02 13:34:37;;;;;;;5.70;1.80;;;;;;;;;;5049424;28;20212;-70
2023/05/02 13:37:02;;;;;;;7.15;2.15;;;;;;;;;;5048780;28;20193;-69
2023/05/02 13:39:28;;;;;;;5.80;1.55;;;;;;;;;;5047754;28;20197;-67
2023/05/02 13:41:53;;;;;;;7.07;1.67;;;;;;;;;;5049264;28;20307;-68
2023/05/02 13:44:18;;;;;;;3.75;1.52;;;;;;;;;;5049698;28;20614;-69
2023/05/02 13:46:44;;;;;;;7.07;1.83;;;;;;;;;;5030197;28;20230;-68
2023/05/02 13:49:09;;;;;;;4.22;1.60;;;;;;;;;;5035679;28;20213;-68
2023/05/02 13:51:35;;;;;;;5.63;1.90;;;;;;;;;;5040105;28;20217;-67
2023/05/02 13:54:01;;;;;;;5.00;1.70;;;;;;;;;;5043454;28;20281;-69
2023/05/02 13:56:27;;;;;;;4.90;1.60;;;;;;;;;;5049330;28;20193;-70
2023/05/02 13:58:52;;;;;;;3.78;1.40;;;;;;;;;;5029819;28;20178;-67
2023/05/02 14:01:18;;;;;;;3.15;1.63;;;;;;;;;;5047066;28;20212;-67
2023/05/02 14:03:43;;;;;;;5.45;1.50;;;;;;;;;;5045940;28;20691;-67
2023/05/02 14:06:09;;;;;;;5.57;1.35;;;;;;;;;;5039156;28;20204;-67
2023/05/02 14:08:34;;;;;;;5.28;1.75;;;;;;;;;;5033312;28;20186;-67
2023/05/02 14:11:00;;;;;;;5.03;1.75;;;;;;;;;;5029236;28;20571;-67
2023/05/02 14:13:26;;;;;;;5.05;1.70;;;;;;;;;;5032047;28;20217;-67
2023/05/02 14:15:52;;;;;;;3.47;1.52;;;;;;;;;;5047530;28;20189;-68
2023/05/02 14:18:17;;;;;;;6.57;1.65;;;;;;;;;;5037214;28;20205;-68
2023/05/02 14:20:43;;;;;;;6.57;1.33;;;;;;;;;;5042998;28;20194;-71
2023/05/02 14:23:08;;;;;;;3.83;1.23;;;;;;;;;;5029058;28;20204;-70
2023/05/02 14:25:35;;;;;;;3.58;1.45;;;;;;;;;;5032186;28;20427;-70
2023/05/02 14:28:00;;;;;;;3.45;1.77;;;;;;;;;;5038184;28;20186;-68
2023/05/02 14:30:26;;;;;;;5.80;1.45;;;;;;;;;;5040737;28;20193;-72
2023/05/02 14:32:51;;;;;;;6.50;1.58;;;;;;;;;;5037416;28;20210;-68
2023/05/02 14:35:17;;;;;;;8.50;1.73;;;;;;;;;;5048511;28;20725;-66
2023/05/02 14:37:44;;;;;;;4.55;1.33;;;;;;;;;;5040518;28;20190;-67
2023/05/02 14:40:11;;;;;;;6.32;1.42;;;;;;;;;;5046373;28;20663;-68